South Burlington, VT

9:59 PM EDT on March 26, 2015 (GMT -0400)
Ethan Allen Park | | Change Station
CLOSE
Current Station
Personal Weather Station
Location: Burlington, VT
Elevation: 167 ft
Nearby Weather Stations

Elev 167 ft 44.51 °N, 73.24 °W | Updated 11 minutes ago

Ice Pellets
Ice Pellets
34.9 °F
Feels Like 35 °F
N
0.0
Wind Variable Wind from ENE
Gusts 3.0 mph

Today
High -- | Low -- °F
--% Chance of Precip.
Yesterday
High -- | Low -- °F
Precip. -- in
6:45 AM 7:12 PM
Waxing Crescent, 48% visible
Pressure 29.75 in
Visibility 3.0 miles
Clouds Few 800 ft
Overcast 1100 ft
Windchill 35 °F
Dew Point 31 °F
Humidity 85%
Rainfall 0.35 in
Snow Depth Not available.
UV 0 out of 12
Pollen 2.40 out of 12
Air Quality Not available.
Flu Activity Not available.
SPECI KBTV 270106Z 36006KT 3SM -RA BR FEW008 OVC011 03/01 A2975 RMK AO2 P0000 T00280011

More Conditions Fewer Conditions

Pressure 29.75 in
Visibility 3.0 miles
Clouds Few 800 ft
Overcast 1100 ft
Windchill 35 °F
Dew Point 31 °F
Humidity 85%
Rainfall 0.35 in
Snow Depth Not available.
UV 0 out of 12
Pollen 2.40 out of 12
Air Quality Not available.
Flu Activity Not available.
SPECI KBTV 270106Z 36006KT 3SM -RA BR FEW008 OVC011 03/01 A2975 RMK AO2 P0000 T00280011

More Conditions Fewer Conditions

10-Day Weather Forecast

Almanac

Astronomy

Mar. 26, 2015 Rise Set
Actual Time
Civil Twilight
Nautical Twilight
Astronomical Twilight
Moon
Length of Visible Light
Length of Day
Tomorrow will be .
, % of the Moon is Illuminated

Today's Extremes

State Highs State Lows

Community

WunderPhotos

Upload Photos

1,808,680 photos uploaded!

WunderBlogs® & News

Nearby

Air Quality

  Air Quality AQ Index Pollutant
Not available.

Snow Depth

Station Depth Elevation

Earthquake Activity

City Distance Mag. Time & Date
Minimum magnitude displayed is 2.5.

Coastal Water Temperatures

Place Temperature

Stations

Nearby Weather Stations

Station Location Temp. Windchill Dew Point Humidity Wind Precip. Elev Updated Type